createdAt,value
2022-08-26T00:02:12.686Z,12.01
2022-08-26T00:05:15.007Z,12.11
2022-08-26T00:08:17.430Z,12.22
2022-08-26T00:11:26.308Z,12.40
2022-08-26T00:14:31.207Z,12.33
2022-08-26T00:17:33.812Z,12.45
2022-08-26T00:20:36.327Z,12.59
2022-08-26T00:23:38.428Z,12.48
2022-08-26T00:26:41.350Z,12.39
2022-08-26T00:29:43.742Z,12.41
2022-08-26T00:32:47.106Z,12.44
2022-08-26T00:35:50.797Z,12.46
2022-08-26T00:38:53.732Z,12.50
2022-08-26T00:41:55.793Z,12.62
2022-08-26T00:44:57.891Z,12.57
2022-08-26T00:48:03.855Z,12.49
2022-08-26T00:51:17.794Z,12.57
2022-08-26T00:54:23.338Z,12.66
2022-08-26T00:57:25.892Z,12.68
2022-08-26T01:00:31.499Z,12.78
2022-08-26T01:03:34.378Z,12.77
2022-08-26T01:06:36.562Z,12.61
2022-08-26T01:09:39.733Z,12.58
2022-08-26T01:12:46.499Z,12.71
2022-08-26T01:15:51.226Z,12.72
2022-08-26T01:18:55.400Z,12.77
2022-08-26T01:22:10.415Z,12.73
2022-08-26T01:25:14.495Z,12.68
2022-08-26T01:28:21.764Z,12.68
2022-08-26T01:31:27.240Z,12.67
2022-08-26T01:34:37.513Z,12.61
2022-08-26T01:37:40.515Z,12.58
2022-08-26T01:40:43.967Z,12.57
2022-08-26T01:43:47.021Z,12.60
2022-08-26T01:46:50.782Z,12.78
2022-08-26T01:49:54.858Z,12.86
2022-08-26T01:52:58.036Z,12.61
2022-08-26T01:56:00.468Z,12.59
2022-08-26T01:59:05.270Z,12.68
2022-08-26T02:02:07.434Z,12.62
2022-08-26T02:05:11.014Z,12.76
2022-08-26T02:08:14.187Z,13.00
2022-08-26T02:11:24.906Z,13.09
2022-08-26T02:14:34.885Z,13.22
2022-08-26T02:17:46.335Z,13.32
2022-08-26T02:20:51.915Z,13.32
2022-08-26T02:23:56.265Z,13.33
2022-08-26T02:26:58.560Z,13.33
2022-08-26T02:30:23.111Z,13.45
2022-08-26T02:33:27.499Z,13.43
2022-08-26T02:36:29.899Z,13.48
2022-08-26T02:39:32.495Z,13.66
2022-08-26T02:42:34.661Z,13.93
2022-08-26T02:45:37.458Z,13.76
2022-08-26T02:48:39.570Z,13.58
2022-08-26T02:51:43.105Z,13.62
2022-08-26T02:54:45.396Z,13.68
2022-08-26T02:57:47.642Z,13.80
2022-08-26T03:00:53.163Z,13.91
2022-08-26T03:03:56.030Z,13.77
2022-08-26T03:06:58.425Z,13.75
2022-08-26T03:10:00.832Z,13.71
2022-08-26T03:13:02.899Z,13.60
2022-08-26T03:16:07.791Z,13.55
2022-08-26T03:19:10.222Z,13.53
2022-08-26T03:22:12.285Z,13.53
2022-08-26T03:25:16.963Z,13.43
2022-08-26T03:28:19.382Z,13.32
2022-08-26T03:31:21.969Z,13.32
2022-08-26T03:34:27.830Z,13.30
2022-08-26T03:37:29.947Z,13.21
2022-08-26T03:40:33.895Z,13.35
2022-08-26T03:43:36.087Z,13.55
2022-08-26T03:46:38.621Z,13.59
2022-08-26T03:49:41.834Z,13.65
2022-08-26T03:52:44.543Z,13.54
2022-08-26T03:55:46.622Z,13.64
2022-08-26T03:58:48.745Z,13.76
2022-08-26T04:01:53.133Z,13.91
2022-08-26T04:04:55.246Z,14.00
2022-08-26T04:07:57.638Z,13.97
2022-08-26T04:11:01.285Z,13.76
2022-08-26T04:14:06.597Z,14.01
2022-08-26T04:17:09.251Z,14.08
2022-08-26T04:20:13.992Z,14.04
2022-08-26T04:23:18.356Z,14.10
2022-08-26T04:26:22.638Z,14.09
2022-08-26T04:29:26.311Z,14.12
2022-08-26T04:32:28.648Z,13.99
2022-08-26T04:35:31.718Z,14.08
2022-08-26T04:38:34.524Z,14.33
2022-08-26T04:41:37.298Z,14.36
2022-08-26T04:44:39.424Z,14.45
2022-08-26T04:47:41.662Z,14.41
2022-08-26T04:50:43.827Z,14.42
2022-08-26T04:53:47.062Z,14.32
2022-08-26T04:56:50.694Z,14.32
2022-08-26T04:59:53.185Z,14.33
2022-08-26T05:02:55.250Z,14.28
2022-08-26T05:05:57.801Z,13.85
2022-08-26T05:08:59.870Z,13.78
2022-08-26T05:12:01.942Z,13.91
2022-08-26T05:15:06.249Z,13.41
2022-08-26T05:18:08.803Z,13.05
2022-08-26T05:21:22.915Z,13.08
2022-08-26T05:24:24.999Z,12.96
2022-08-26T05:27:27.162Z,12.75
2022-08-26T05:30:31.436Z,13.08
2022-08-26T05:33:33.519Z,13.61
2022-08-26T05:36:36.037Z,13.67
2022-08-26T05:39:41.195Z,13.53
2022-08-26T05:42:43.415Z,13.60
2022-08-26T05:45:50.143Z,14.09
2022-08-26T05:48:52.663Z,13.41
2022-08-26T05:51:54.752Z,13.75
2022-08-26T05:54:57.087Z,13.58
2022-08-26T05:57:59.156Z,13.50
2022-08-26T06:01:15.380Z,13.95
2022-08-26T06:04:17.491Z,14.29
2022-08-26T06:07:42.167Z,14.18
2022-08-26T06:10:55.710Z,13.79
2022-08-26T06:14:03.801Z,13.78
2022-08-26T06:17:06.319Z,13.88
2022-08-26T06:20:11.827Z,13.81
2022-08-26T06:23:33.957Z,14.05
2022-08-26T06:26:36.696Z,14.04
2022-08-26T06:29:38.836Z,14.29
2022-08-26T06:32:40.911Z,15.00
2022-08-26T06:35:43.198Z,15.42
2022-08-26T06:38:47.338Z,15.51
2022-08-26T06:41:49.482Z,15.58
2022-08-26T06:44:52.775Z,15.13
2022-08-26T06:47:55.060Z,15.44
2022-08-26T06:51:28.755Z,15.79
2022-08-26T06:54:31.710Z,16.17
2022-08-26T06:57:37.695Z,16.28
2022-08-26T07:00:41.872Z,16.26
2022-08-26T07:03:50.983Z,16.30
2022-08-26T07:06:53.695Z,16.27
2022-08-26T07:09:56.074Z,16.24
2022-08-26T07:12:59.198Z,16.29
2022-08-26T07:16:04.161Z,16.35
2022-08-26T07:19:11.423Z,16.79
2022-08-26T07:22:13.782Z,16.89
2022-08-26T07:25:16.147Z,16.73
2022-08-26T07:28:18.217Z,16.36
2022-08-26T07:31:22.712Z,16.41
2022-08-26T07:34:25.373Z,16.80
2022-08-26T07:37:28.445Z,16.78
2022-08-26T07:40:37.668Z,16.90
2022-08-26T07:43:39.911Z,17.23
2022-08-26T07:46:44.003Z,16.91
2022-08-26T07:49:46.410Z,16.50
2022-08-26T07:52:54.786Z,17.02
2022-08-26T07:55:58.987Z,17.23
2022-08-26T07:59:01.638Z,17.37
2022-08-26T08:02:04.822Z,17.25
2022-08-26T08:05:07.319Z,17.37
2022-08-26T08:08:21.873Z,17.91
2022-08-26T08:11:31.066Z,17.69
2022-08-26T08:14:34.635Z,17.94
2022-08-26T08:17:36.825Z,18.13
2022-08-26T08:20:39.421Z,18.15
2022-08-26T08:23:46.886Z,18.24
2022-08-26T08:26:50.278Z,18.38
2022-08-26T08:29:56.960Z,18.40
2022-08-26T08:32:59.074Z,18.27
2022-08-26T08:36:02.058Z,18.80
2022-08-26T08:39:04.359Z,19.22
2022-08-26T08:42:29.498Z,18.48
2022-08-26T08:45:42.582Z,19.55
2022-08-26T08:48:48.179Z,19.33
2022-08-26T08:51:58.839Z,18.94
2022-08-26T08:55:02.901Z,18.98
2022-08-26T08:58:11.943Z,19.26
2022-08-26T09:01:39.520Z,18.94
2022-08-26T09:05:20.742Z,18.66
2022-08-26T09:08:28.381Z,19.35
2022-08-26T09:11:30.555Z,19.24
2022-08-26T09:14:32.665Z,19.84
2022-08-26T09:18:00.983Z,19.45
2022-08-26T09:21:12.183Z,19.66
2022-08-26T09:24:14.319Z,19.36
2022-08-26T09:27:46.137Z,20.04
2022-08-26T09:31:12.551Z,19.98
2022-08-26T09:34:19.026Z,20.23
2022-08-26T09:37:40.610Z,19.87
2022-08-26T09:40:44.706Z,21.25
2022-08-26T09:44:19.262Z,21.01
2022-08-26T09:47:34.264Z,20.72
2022-08-26T09:50:53.415Z,20.48
2022-08-26T09:54:00.747Z,20.58
2022-08-26T09:57:26.046Z,21.01
2022-08-26T10:00:41.947Z,20.99
2022-08-26T10:03:45.013Z,20.45
2022-08-26T10:07:09.870Z,20.18
2022-08-26T10:10:30.092Z,21.14
2022-08-26T10:13:43.483Z,21.45
2022-08-26T10:17:03.977Z,20.62
2022-08-26T10:20:42.823Z,20.66
2022-08-26T10:23:56.143Z,20.65
2022-08-26T10:27:28.655Z,21.29
2022-08-26T10:30:40.223Z,22.40
2022-08-26T10:33:44.992Z,22.00
2022-08-26T10:37:14.547Z,21.75
2022-08-26T10:40:27.980Z,21.49
2022-08-26T10:44:07.660Z,21.84
2022-08-26T10:47:15.603Z,22.57
2022-08-26T10:50:18.989Z,22.32
2022-08-26T10:53:51.433Z,23.08
2022-08-26T10:57:02.903Z,23.04
2022-08-26T11:00:34.740Z,22.00
2022-08-26T11:04:38.886Z,22.28
2022-08-26T11:07:46.350Z,23.19
2022-08-26T11:10:58.033Z,22.02
2022-08-26T11:14:10.979Z,22.76
2022-08-26T11:17:13.062Z,22.91
2022-08-26T11:20:33.131Z,25.37
2022-08-26T11:23:45.386Z,25.43
2022-08-26T11:26:55.921Z,25.96
2022-08-26T11:30:13.159Z,25.00
2022-08-26T11:33:45.423Z,22.63
2022-08-26T11:36:47.703Z,22.40
2022-08-26T11:39:55.467Z,23.10
2022-08-26T11:43:06.759Z,24.65
2022-08-26T11:46:11.681Z,24.60
2022-08-26T11:49:14.773Z,24.89
2022-08-26T11:52:22.137Z,25.34
2022-08-26T11:55:24.350Z,25.57
2022-08-26T11:58:27.368Z,25.44
2022-08-26T12:01:31.923Z,23.43
2022-08-26T12:04:34.919Z,23.35
2022-08-26T12:07:37.160Z,24.93
2022-08-26T12:10:44.774Z,25.53
2022-08-26T12:13:57.759Z,26.45
2022-08-26T12:17:13.539Z,25.65
2022-08-26T12:20:48.806Z,23.73
2022-08-26T12:23:55.842Z,25.01
2022-08-26T12:27:17.214Z,25.83
2022-08-26T12:30:24.111Z,24.75
2022-08-26T12:33:28.451Z,25.27
2022-08-26T12:36:39.177Z,25.16
2022-08-26T12:39:43.523Z,26.87
2022-08-26T12:42:45.655Z,27.47
2022-08-26T12:45:58.483Z,28.74
2022-08-26T12:49:04.126Z,28.34
2022-08-26T12:52:08.036Z,27.19
2022-08-26T12:55:23.070Z,26.90
2022-08-26T12:58:35.030Z,27.25
2022-08-26T13:01:44.365Z,27.25
2022-08-26T13:04:46.635Z,29.27
2022-08-26T13:08:10.726Z,28.66
2022-08-26T13:11:20.562Z,28.22
2022-08-26T13:14:24.579Z,29.39
2022-08-26T13:17:28.408Z,28.39
2022-08-26T13:20:30.913Z,26.15
2022-08-26T13:23:32.974Z,26.68
2022-08-26T13:26:35.682Z,26.39
2022-08-26T13:29:37.815Z,26.74
2022-08-26T13:32:39.903Z,27.68
2022-08-26T13:35:42.496Z,26.12
2022-08-26T13:38:44.665Z,25.73
2022-08-26T13:41:50.599Z,26.01
2022-08-26T13:44:57.933Z,25.71
2022-08-26T13:48:00.509Z,25.79
2022-08-26T13:51:02.901Z,24.84
2022-08-26T13:54:10.321Z,24.20
2022-08-26T13:57:12.427Z,24.52
2022-08-26T14:00:15.832Z,23.77
2022-08-26T14:03:18.147Z,23.60
2022-08-26T14:06:20.337Z,24.54
2022-08-26T14:09:22.438Z,24.77
2022-08-26T14:12:24.886Z,25.13
2022-08-26T14:15:27.134Z,24.77
2022-08-26T14:18:43.652Z,24.87
2022-08-26T14:21:48.323Z,24.84
2022-08-26T14:24:50.559Z,24.63
2022-08-26T14:27:55.478Z,24.17
2022-08-26T14:30:58.244Z,23.11
2022-08-26T14:34:03.873Z,23.27
2022-08-26T14:37:08.224Z,22.76
2022-08-26T14:40:15.249Z,23.61
2022-08-26T14:43:17.362Z,23.27
2022-08-26T14:46:19.518Z,22.94
2022-08-26T14:49:22.456Z,22.81
2022-08-26T14:52:24.931Z,22.85
2022-08-26T14:55:27.517Z,22.40
2022-08-26T14:58:34.761Z,22.25
2022-08-26T15:01:37.336Z,22.82
2022-08-26T15:04:40.617Z,22.31
2022-08-26T15:07:42.843Z,22.41
2022-08-26T15:10:44.935Z,22.42
2022-08-26T15:13:47.188Z,22.39
2022-08-26T15:16:55.828Z,23.36
2022-08-26T15:19:58.078Z,23.44
2022-08-26T15:23:06.269Z,23.20
2022-08-26T15:26:10.233Z,23.22
2022-08-26T15:29:12.488Z,22.34
2022-08-26T15:32:14.558Z,22.53
2022-08-26T15:35:16.715Z,22.03
2022-08-26T15:38:18.848Z,22.53
2022-08-26T15:41:20.939Z,22.03
2022-08-26T15:44:23.126Z,22.17
2022-08-26T15:47:25.257Z,22.38
2022-08-26T15:50:27.369Z,22.24
2022-08-26T15:53:31.498Z,22.21
2022-08-26T15:56:35.456Z,21.59
2022-08-26T15:59:37.640Z,22.46
2022-08-26T16:02:39.721Z,22.27
2022-08-26T16:05:43.628Z,21.84
2022-08-26T16:08:46.230Z,22.12
2022-08-26T16:11:48.323Z,21.72
2022-08-26T16:14:53.970Z,21.76
2022-08-26T16:17:59.095Z,22.02
2022-08-26T16:21:12.905Z,21.56
2022-08-26T16:24:16.207Z,21.43
2022-08-26T16:27:18.296Z,21.20
2022-08-26T16:30:25.319Z,21.39
2022-08-26T16:33:29.426Z,21.70
2022-08-26T16:36:32.031Z,21.63
2022-08-26T16:39:34.109Z,21.70
2022-08-26T16:42:42.300Z,21.24
2022-08-26T16:45:44.395Z,21.35
2022-08-26T16:48:46.522Z,22.48
2022-08-26T16:51:48.642Z,22.38
2022-08-26T16:54:50.797Z,22.00
2022-08-26T16:57:52.986Z,22.74
2022-08-26T17:00:55.074Z,23.01
2022-08-26T17:03:57.274Z,23.07
2022-08-26T17:06:59.782Z,23.64
2022-08-26T17:10:02.923Z,23.15
2022-08-26T17:13:05.005Z,22.38
2022-08-26T17:16:09.382Z,21.69
2022-08-26T17:19:11.516Z,21.40
2022-08-26T17:22:13.659Z,21.20
2022-08-26T17:25:23.302Z,20.95
2022-08-26T17:28:25.373Z,21.05
2022-08-26T17:31:27.518Z,23.28
2022-08-26T17:34:29.638Z,22.42
2022-08-26T17:37:31.879Z,24.67
2022-08-26T17:40:34.823Z,26.77
2022-08-26T17:43:37.583Z,27.13
2022-08-26T17:46:39.878Z,26.41
2022-08-26T17:49:41.993Z,27.32
2022-08-26T17:52:44.382Z,25.31
2022-08-26T17:55:50.153Z,23.51
2022-08-26T17:59:02.234Z,22.72
2022-08-26T18:02:06.237Z,22.24
2022-08-26T18:05:11.550Z,21.67
2022-08-26T18:08:13.640Z,21.21
2022-08-26T18:11:18.585Z,20.72
2022-08-26T18:14:21.791Z,20.60
2022-08-26T18:17:23.911Z,20.58
2022-08-26T18:20:26.053Z,20.26
2022-08-26T18:23:28.317Z,20.42
2022-08-26T18:26:36.333Z,20.06
2022-08-26T18:29:45.296Z,19.93
2022-08-26T18:32:49.179Z,19.84
2022-08-26T18:35:51.279Z,19.68
2022-08-26T18:38:54.064Z,19.53
2022-08-26T18:41:56.175Z,19.44
2022-08-26T18:44:58.271Z,19.59
2022-08-26T18:48:01.973Z,19.46
2022-08-26T18:51:04.457Z,19.37
2022-08-26T18:54:07.362Z,19.45
2022-08-26T18:57:09.715Z,19.33
2022-08-26T19:00:12.458Z,19.31
2022-08-26T19:03:18.927Z,19.26
2022-08-26T19:06:22.285Z,19.37
2022-08-26T19:09:26.363Z,19.11
2022-08-26T19:12:29.626Z,19.03
2022-08-26T19:15:41.374Z,18.90
2022-08-26T19:18:43.555Z,19.01
2022-08-26T19:21:45.926Z,18.68
2022-08-26T19:24:48.123Z,18.79
2022-08-26T19:27:50.232Z,18.66
2022-08-26T19:30:53.310Z,18.72
2022-08-26T19:33:56.703Z,18.86
2022-08-26T19:36:58.905Z,18.59
2022-08-26T19:40:01.109Z,18.83
2022-08-26T19:43:03.661Z,18.78
2022-08-26T19:46:11.313Z,18.73
2022-08-26T19:49:13.444Z,18.86
2022-08-26T19:52:15.591Z,18.84
2022-08-26T19:55:18.653Z,18.80
2022-08-26T19:58:21.001Z,19.03
2022-08-26T20:01:24.602Z,19.04
2022-08-26T20:04:26.903Z,18.96
2022-08-26T20:07:30.040Z,18.71
2022-08-26T20:10:34.610Z,18.86
2022-08-26T20:13:36.855Z,18.96
2022-08-26T20:16:38.995Z,18.82
2022-08-26T20:19:59.685Z,18.99
2022-08-26T20:23:03.671Z,18.93
2022-08-26T20:26:05.905Z,18.97
2022-08-26T20:29:08.620Z,18.95
2022-08-26T20:32:11.992Z,18.93
2022-08-26T20:35:14.463Z,19.04
2022-08-26T20:38:20.873Z,19.19
2022-08-26T20:41:25.810Z,19.17
2022-08-26T20:44:28.317Z,19.17
2022-08-26T20:47:30.839Z,18.76
2022-08-26T20:50:33.387Z,18.42
2022-08-26T20:53:35.842Z,18.43
2022-08-26T20:56:38.105Z,18.27
2022-08-26T20:59:40.610Z,17.83
2022-08-26T21:02:42.745Z,17.68
2022-08-26T21:05:45.282Z,17.50
2022-08-26T21:08:48.398Z,17.37
2022-08-26T21:11:50.622Z,17.40
2022-08-26T21:14:53.229Z,17.39
2022-08-26T21:17:55.391Z,17.76
2022-08-26T21:20:57.807Z,17.65
2022-08-26T21:24:00.083Z,17.69
2022-08-26T21:27:02.299Z,18.00
2022-08-26T21:30:05.189Z,17.95
2022-08-26T21:33:07.742Z,17.70
2022-08-26T21:36:10.511Z,17.31
2022-08-26T21:39:12.957Z,17.26
2022-08-26T21:42:15.080Z,17.32
2022-08-26T21:45:17.343Z,17.43
2022-08-26T21:48:19.624Z,17.37
2022-08-26T21:51:23.363Z,17.34
2022-08-26T21:54:25.606Z,17.34
2022-08-26T21:57:29.085Z,17.44
2022-08-26T22:00:31.203Z,17.14
2022-08-26T22:03:39.320Z,17.14
2022-08-26T22:06:53.561Z,17.00
2022-08-26T22:09:56.158Z,17.03
2022-08-26T22:12:58.566Z,16.98
2022-08-26T22:16:00.982Z,16.96
2022-08-26T22:19:03.279Z,17.22
2022-08-26T22:22:05.433Z,17.34
2022-08-26T22:25:08.290Z,17.23
2022-08-26T22:28:10.563Z,17.15
2022-08-26T22:31:13.510Z,17.26
2022-08-26T22:34:17.388Z,17.25
2022-08-26T22:37:19.576Z,17.50
2022-08-26T22:40:21.838Z,17.57
2022-08-26T22:43:24.833Z,17.61
2022-08-26T22:46:27.166Z,17.58
2022-08-26T22:49:29.267Z,17.49
2022-08-26T22:52:31.450Z,17.35
2022-08-26T22:55:33.669Z,17.09
2022-08-26T22:58:36.087Z,17.17
2022-08-26T23:01:40.922Z,17.23
2022-08-26T23:04:43.109Z,17.14
2022-08-26T23:07:45.247Z,17.19
2022-08-26T23:10:47.497Z,17.43
2022-08-26T23:13:49.584Z,17.37
2022-08-26T23:16:51.914Z,17.13
2022-08-26T23:19:55.213Z,16.86
2022-08-26T23:22:57.650Z,16.92
2022-08-26T23:26:03.273Z,16.91
2022-08-26T23:29:09.084Z,16.89
2022-08-26T23:32:11.481Z,16.98
2022-08-26T23:35:14.280Z,17.31
2022-08-26T23:38:16.539Z,17.14
2022-08-26T23:41:18.662Z,17.37
2022-08-26T23:44:21.274Z,17.60
2022-08-26T23:47:23.414Z,17.47
2022-08-26T23:50:47.563Z,17.47
2022-08-26T23:53:49.689Z,17.32
2022-08-26T23:56:51.783Z,17.47
2022-08-26T23:59:53.894Z,17.51
